Time;durP1;ratioP1;P1;durP2;ratioP2;P2;SDS_P1;SDS_P2;PMS_P1;PMS_P2;Temp;Humidity;BMP_temperature;BMP_pressure;BME280_temperature;BME280_humidity;BME280_pressure;Samples;Min_cycle;Max_cycle;Signal;HPM_P1;HPM_P2
2022/07/12 00:03:43;;;;;;;;;;;17.40;99.90;;;16.04;91.49;96247.88;10457855;28;1788;-73
2022/07/12 00:08:47;;;;;;;;;;;17.40;99.90;;;15.91;92.30;96247.53;10467991;28;2268;-74
2022/07/12 00:13:51;;;;;;;;;;;17.10;99.90;;;15.90;94.02;96248.63;10469768;28;1987;-73
2022/07/12 00:18:54;;;;;;;;;;;17.00;99.90;;;15.83;94.41;96244.66;10466276;28;1860;-73
2022/07/12 00:23:58;;;;;;;;;;;16.90;99.90;;;15.73;95.66;96250.25;10464976;28;1836;-73
2022/07/12 00:29:00;;;;;;;;;;;16.90;99.90;;;15.64;96.80;96245.50;10469425;28;1813;-73
2022/07/12 00:34:04;;;;;;;;;;;16.80;99.90;;;15.50;97.90;96250.00;10459402;28;1981;-73
2022/07/12 00:39:06;;;;;;;;;;;16.70;99.90;;;15.47;98.70;96252.50;10469053;28;1861;-75
2022/07/12 00:44:09;;;;;;;;;;;16.60;99.90;;;15.36;99.10;96244.53;10469700;28;2309;-73
2022/07/12 00:49:15;;;;;;;;;;;16.60;99.90;;;15.29;100.00;96252.19;10468573;28;1870;-73
2022/07/12 00:54:19;;;;;;;;;;;16.40;99.90;;;15.36;100.00;96246.41;10464216;28;1999;-72
2022/07/12 00:59:22;;;;;;;;;;;16.40;99.90;;;15.32;100.00;96256.22;10465543;28;1839;-73
2022/07/12 01:04:25;;;;;;;;;;;16.40;99.90;;;15.28;100.00;96244.38;10465881;28;1873;-73
2022/07/12 01:09:29;;;;;;;;;;;16.40;99.90;;;15.20;100.00;96247.72;10465715;28;1836;-73
2022/07/12 01:14:33;;;;;;;;;;;16.30;99.90;;;15.18;100.00;96244.50;10464957;28;1914;-73
2022/07/12 01:19:41;;;;;;;;;;;16.30;99.90;;;15.21;100.00;96249.34;10466984;28;1876;-74
2022/07/12 01:24:53;;;;;;;;;;;16.20;99.90;;;15.28;100.00;96253.31;10474840;28;1986;-73
2022/07/12 01:30:10;;;;;;;;;;;16.30;99.90;;;15.33;100.00;96252.41;10470679;28;1914;-73
2022/07/12 01:35:21;;;;;;;;;;;16.30;99.90;;;15.31;100.00;96257.31;10460892;28;1977;-73
2022/07/12 01:40:28;;;;;;;;;;;16.30;99.90;;;15.19;100.00;96249.63;10471382;28;2046;-74
2022/07/12 01:45:32;;;;;;;;;;;16.30;99.90;;;15.00;100.00;96246.88;10468669;28;1977;-74
2022/07/12 01:50:35;;;;;;;;;;;16.20;99.90;;;14.82;100.00;96245.78;10477048;28;1946;-73
2022/07/12 01:55:38;;;;;;;;;;;16.00;99.90;;;14.70;100.00;96249.97;10469478;28;1963;-72
2022/07/12 02:00:40;;;;;;;;;;;15.90;99.90;;;14.58;100.00;96251.19;10480578;28;1915;-74
2022/07/12 02:05:44;;;;;;;;;;;15.80;99.90;;;14.43;100.00;96251.28;10469456;28;1915;-74
2022/07/12 02:10:47;;;;;;;;;;;15.60;99.90;;;14.35;100.00;96246.50;10472965;28;1958;-74
2022/07/12 02:15:51;;;;;;;;;;;15.60;99.90;;;14.24;100.00;96248.50;10465125;28;2016;-75
2022/07/12 02:20:54;;;;;;;;;;;15.40;99.90;;;14.16;100.00;96245.63;10478511;28;1938;-73
2022/07/12 02:25:58;;;;;;;;;;;15.40;99.90;;;14.06;100.00;96247.34;10472619;28;1998;-75
2022/07/12 02:31:01;;;;;;;;;;;15.30;99.90;;;13.95;100.00;96240.41;10470067;28;1911;-74
2022/07/12 02:36:04;;;;;;;;;;;15.20;99.90;;;13.88;100.00;96249.91;10466992;28;1955;-73
2022/07/12 02:41:07;;;;;;;;;;;15.10;99.90;;;13.83;100.00;96250.75;10470191;28;1923;-73
2022/07/12 02:46:10;;;;;;;;;;;15.00;99.90;;;13.75;100.00;96252.19;10472388;28;1939;-74
2022/07/12 02:51:13;;;;;;;;;;;14.90;99.90;;;13.71;100.00;96253.00;10468936;28;1985;-73
2022/07/12 02:56:16;;;;;;;;;;;14.90;99.90;;;13.66;100.00;96258.44;10474954;28;2352;-73
2022/07/12 03:01:19;;;;;;;;;;;14.80;99.90;;;13.66;100.00;96253.03;10468119;28;1939;-74
2022/07/12 03:06:22;;;;;;;;;;;14.80;99.90;;;13.56;100.00;96253.94;10469182;28;1812;-73
2022/07/12 03:11:25;;;;;;;;;;;14.70;99.90;;;13.55;100.00;96262.28;10469591;28;2033;-72
2022/07/12 03:16:28;;;;;;;;;;;14.70;99.90;;;13.47;100.00;96261.00;10468169;28;2001;-73
2022/07/12 03:21:31;;;;;;;;;;;14.60;99.90;;;13.43;100.00;96255.38;10477311;28;2351;-73
2022/07/12 03:26:34;;;;;;;;;;;14.50;99.90;;;13.39;100.00;96261.59;10469978;28;1610;-73
2022/07/12 03:31:37;;;;;;;;;;;14.50;99.90;;;13.33;100.00;96260.00;10488120;28;1575;-72
2022/07/12 03:36:40;;;;;;;;;;;14.40;99.90;;;13.35;100.00;96268.63;10474871;28;1981;-73
2022/07/12 03:41:43;;;;;;;;;;;14.40;99.90;;;13.36;100.00;96265.69;10470706;28;1927;-74
2022/07/12 03:46:49;;;;;;;;;;;14.40;99.90;;;13.37;100.00;96270.00;10466529;28;1974;-73
2022/07/12 03:51:53;;;;;;;;;;;14.40;99.90;;;13.46;100.00;96270.19;10466977;28;1855;-73
2022/07/12 03:57:14;;;;;;;;;;;14.40;99.90;;;13.52;100.00;96277.97;10476334;28;1950;-73
2022/07/12 04:02:17;;;;;;;;;;;14.50;99.90;;;13.89;100.00;96279.34;10471909;28;2009;-73
2022/07/12 04:07:21;;;;;;;;;;;14.60;99.90;;;14.21;100.00;96269.91;10465157;28;1824;-73
2022/07/12 04:12:24;;;;;;;;;;;14.80;99.90;;;14.53;100.00;96282.88;10462612;28;1659;-74
2022/07/12 04:17:27;;;;;;;;;;;15.10;99.90;;;14.85;100.00;96280.38;10470218;28;2052;-73
2022/07/12 04:22:31;;;;;;;;;;;15.40;99.90;;;14.95;100.00;96284.03;10463521;28;2042;-74
2022/07/12 04:27:34;;;;;;;;;;;15.70;99.90;;;15.14;100.00;96287.59;10466277;28;1934;-72
2022/07/12 04:32:37;;;;;;;;;;;15.90;99.90;;;15.48;100.00;96287.44;10469111;28;1864;-74
2022/07/12 04:37:41;;;;;;;;;;;16.10;99.90;;;15.42;100.00;96296.72;10466423;28;2006;-72
2022/07/12 04:42:44;;;;;;;;;;;16.20;99.90;;;15.53;100.00;96284.66;10463768;28;1954;-74
2022/07/12 04:47:47;;;;;;;;;;;16.20;99.90;;;15.58;100.00;96281.84;10466698;28;1970;-73
2022/07/12 04:52:50;;;;;;;;;;;16.30;99.90;;;15.95;100.00;96285.69;10464006;28;2144;-74
2022/07/12 04:57:53;;;;;;;;;;;16.50;99.90;;;16.53;98.29;96290.69;10474725;28;1918;-72
2022/07/12 05:02:56;;;;;;;;;;;17.00;99.90;;;16.93;95.13;96289.16;10462994;28;1820;-73
2022/07/12 05:07:59;;;;;;;;;;;17.40;99.90;;;17.19;93.15;96289.47;10461649;28;1986;-73
2022/07/12 05:13:02;;;;;;;;;;;17.70;99.90;;;17.66;89.41;96300.94;10469604;28;1903;-73
2022/07/12 05:18:05;;;;;;;;;;;18.00;99.90;;;17.75;88.51;96296.44;10471007;28;1971;-72
2022/07/12 05:23:08;;;;;;;;;;;18.10;99.90;;;18.08;86.67;96298.94;10464591;28;1922;-75
2022/07/12 05:28:11;;;;;;;;;;;18.40;99.90;;;18.18;84.84;96295.97;10466661;28;1947;-75
2022/07/12 05:33:15;;;;;;;;;;;18.60;99.90;;;18.33;82.96;96300.25;10464140;28;1974;-75
2022/07/12 05:38:19;;;;;;;;;;;18.90;99.90;;;18.27;81.69;96299.56;10459263;28;1914;-75
2022/07/12 05:43:22;;;;;;;;;;;19.00;99.90;;;17.50;85.43;96308.66;10467776;28;1997;-74
2022/07/12 05:48:26;;;;;;;;;;;18.60;99.90;;;17.35;87.33;96314.38;10465499;28;2036;-75
2022/07/12 05:53:29;;;;;;;;;;;18.30;99.90;;;17.53;86.25;96312.66;10477524;28;2080;-76
2022/07/12 05:58:32;;;;;;;;;;;18.20;99.90;;;17.52;86.23;96324.66;10460750;28;2080;-74
2022/07/12 06:03:42;;;;;;;;;;;18.20;99.90;;;18.03;83.81;96326.25;10472109;28;1993;-75
2022/07/12 06:08:45;;;;;;;;;;;18.60;99.90;;;18.33;80.79;96328.25;10472476;28;1965;-75
2022/07/12 06:13:49;;;;;;;;;;;19.00;99.90;;;18.59;79.38;96335.81;10468187;28;1903;-74
2022/07/12 06:18:52;;;;;;;;;;;19.30;99.90;;;18.84;76.67;96339.81;10478023;28;1985;-75
2022/07/12 06:23:55;;;;;;;;;;;19.60;99.90;;;18.09;79.39;96344.09;10471229;28;1954;-73
2022/07/12 06:28:58;;;;;;;;;;;19.50;99.90;;;18.82;78.32;96342.03;10469798;28;2331;-73
2022/07/12 06:34:01;;;;;;;;;;;19.40;99.90;;;19.26;74.44;96338.38;10463158;28;1926;-74
2022/07/12 06:39:04;;;;;;;;;;;19.70;99.90;;;19.64;70.24;96329.69;10464715;28;1972;-74
2022/07/12 06:44:07;;;;;;;;;;;20.10;99.90;;;19.62;70.32;96343.66;10461146;28;1915;-74
2022/07/12 06:49:10;;;;;;;;;;;20.20;99.90;;;19.64;70.76;96341.41;10466932;28;1975;-74
2022/07/12 06:54:14;;;;;;;;;;;20.30;99.90;;;19.91;70.94;96326.72;10471799;28;1950;-75
2022/07/12 06:59:17;;;;;;;;;;;20.40;99.90;;;20.29;67.58;96325.25;10475395;28;1993;-75
2022/07/12 07:04:21;;;;;;;;;;;20.70;99.90;;;20.66;65.65;96324.59;10468303;28;2161;-76
2022/07/12 07:09:23;;;;;;;;;;;21.00;99.90;;;20.79;64.76;96328.25;10471900;28;1990;-75
2022/07/12 07:14:28;;;;;;;;;;;21.20;99.90;;;20.97;63.14;96343.47;10481106;28;1966;-76
2022/07/12 07:19:32;;;;;;;;;;;21.50;99.90;;;20.59;64.25;96324.28;10478297;28;1914;-76
2022/07/12 07:24:34;;;;;;;;;;;21.40;99.90;;;20.97;63.10;96342.69;10471747;28;1922;-76
2022/07/12 07:34:58;;;;;;;;;;;21.60;99.90;;;21.85;60.69;96336.50;10486728;28;2368;-74
2022/07/12 07:40:00;;;;;;;;;;;22.00;99.90;;;21.68;57.53;96340.13;10505357;28;1997;-75
2022/07/12 07:45:06;;;;;;;;;;;22.30;99.90;;;21.67;59.21;96343.19;10476086;28;1973;-75
2022/07/12 07:50:20;;;;;;;;;;;22.10;99.90;;;20.79;61.38;96344.66;10467526;28;2142;-76
2022/07/12 07:55:24;;;;;;;;;;;21.80;99.90;;;21.38;60.50;96344.81;10469074;28;1950;-75
2022/07/12 08:00:27;;;;;;;;;;;21.90;99.90;;;21.43;59.41;96338.34;10485097;28;2043;-75
2022/07/12 08:05:30;;;;;;;;;;;22.10;99.90;;;21.34;59.61;96346.59;10468721;28;1906;-75
2022/07/12 08:10:33;;;;;;;;;;;22.20;99.90;;;20.62;63.76;96339.25;10464682;28;2018;-74
2022/07/12 08:15:36;;;;;;;;;;;21.70;99.90;;;20.44;64.59;96341.97;10481880;28;1740;-74
2022/07/12 08:20:39;;;;;;;;;;;21.60;99.90;;;21.02;63.88;96343.31;10464614;28;2047;-74
2022/07/12 08:25:50;;;;;;;;;;;21.60;99.90;;;21.20;60.25;96345.97;10463757;28;1784;-74
2022/07/12 08:30:54;;;;;;;;;;;21.90;99.90;;;21.23;56.66;96353.50;10461448;28;1780;-73
2022/07/12 08:35:57;;;;;;;;;;;22.20;99.90;;;20.96;59.00;96361.00;10459146;28;2170;-72
2022/07/12 08:41:01;;;;;;;;;;;21.80;99.90;;;20.94;58.41;96366.00;10463751;28;1777;-74
2022/07/12 08:46:04;;;;;;;;;;;21.70;99.90;;;20.98;56.99;96369.66;10463308;28;1828;-74
2022/07/12 08:51:07;;;;;;;;;;;21.80;99.90;;;22.08;54.20;96364.38;10473026;28;1916;-74
2022/07/12 08:56:10;;;;;;;;;;;22.40;99.90;;;22.20;52.32;96360.91;10468194;28;1958;-75
2022/07/12 09:01:14;;;;;;;;;;;22.70;99.90;;;21.75;52.63;96361.50;10473299;28;1848;-74
2022/07/12 09:06:17;;;;;;;;;;;22.60;99.90;;;21.17;54.77;96374.75;10470516;28;1752;-73
2022/07/12 09:11:20;;;;;;;;;;;22.20;99.90;;;22.73;52.47;96373.84;10469660;28;1848;-73
2022/07/12 09:16:23;;;;;;;;;;;22.60;99.90;;;23.09;48.02;96372.34;10471323;28;1981;-73
2022/07/12 09:21:26;;;;;;;;;;;23.30;99.90;;;23.25;45.97;96369.78;10473585;28;1919;-74
2022/07/12 09:26:29;;;;;;;;;;;23.90;99.90;;;22.99;47.78;96359.09;10468032;28;1872;-75
2022/07/12 09:31:32;;;;;;;;;;;23.70;99.90;;;23.31;47.95;96366.47;10471035;28;1781;-73
2022/07/12 09:36:35;;;;;;;;;;;23.70;99.90;;;23.71;47.11;96369.34;10486668;28;1981;-74
2022/07/12 09:41:39;;;;;;;;;;;23.90;99.90;;;22.90;47.19;96376.44;10471793;28;1828;-74
2022/07/12 09:46:42;;;;;;;;;;;24.10;99.90;;;22.78;47.47;96375.56;10476919;28;1856;-75
2022/07/12 09:51:47;;;;;;;;;;;23.40;99.90;;;22.49;48.83;96380.00;10471368;28;1832;-74
2022/07/12 09:56:50;;;;;;;;;;;23.10;99.90;;;22.66;47.62;96376.31;10471504;28;1909;-74
2022/07/12 10:01:55;;;;;;;;;;;23.20;99.90;;;23.07;47.99;96372.69;10467992;28;1819;-74
2022/07/12 10:06:58;;;;;;;;;;;23.40;99.90;;;23.61;45.64;96379.97;10472432;28;1798;-74
2022/07/12 10:12:01;;;;;;;;;;;23.90;99.90;;;23.87;45.09;96382.41;10465769;28;2334;-73
2022/07/12 10:17:13;;;;;;;;;;;24.20;99.90;;;24.73;44.38;96381.06;10487055;28;1984;-74
2022/07/12 10:22:17;;;;;;;;;;;24.70;99.90;;;24.91;41.65;96389.00;10463917;28;1831;-74
2022/07/12 10:27:21;;;;;;;;;;;25.50;99.90;;;24.54;43.13;96380.91;10464613;28;1869;-75
2022/07/12 10:32:24;;;;;;;;;;;25.50;99.90;;;22.27;46.23;96385.84;10466476;28;1838;-74
2022/07/12 10:37:28;;;;;;;;;;;24.10;99.90;;;22.26;46.27;96381.47;10463669;28;1985;-73
2022/07/12 10:42:31;;;;;;;;;;;23.10;99.90;;;23.68;42.69;96377.50;10465957;28;1780;-74
2022/07/12 10:47:34;;;;;;;;;;;23.80;99.90;;;24.42;41.01;96370.75;10468957;28;1822;-73
2022/07/12 10:52:36;;;;;;;;;;;25.00;99.90;;;24.60;40.86;96370.47;10467540;28;1883;-73
2022/07/12 10:57:40;;;;;;;;;;;25.20;99.90;;;25.74;37.87;96377.06;10457679;28;1918;-72
2022/07/12 11:02:43;;;;;;;;;;;26.50;99.90;;;25.21;39.50;96371.00;10466430;28;1797;-74
2022/07/12 11:07:46;;;;;;;;;;;26.80;99.90;;;23.31;42.62;96373.88;10462504;28;1872;-74
2022/07/12 11:12:49;;;;;;;;;;;25.60;99.90;;;23.43;42.22;96371.16;10479790;28;1869;-73
2022/07/12 11:17:52;;;;;;;;;;;25.10;99.90;;;24.65;39.08;96372.97;10460169;28;1985;-75
2022/07/12 11:22:56;;;;;;;;;;;26.10;99.90;;;25.85;35.23;96367.09;10467390;28;1850;-75
2022/07/12 11:28:00;;;;;;;;;;;27.80;99.90;;;24.64;37.81;96361.19;10468401;28;1773;-76
2022/07/12 11:33:03;;;;;;;;;;;26.90;99.90;;;25.13;39.56;96360.97;10472521;28;1866;-74
2022/07/12 11:38:05;;;;;;;;;;;26.30;99.90;;;25.07;38.42;96351.38;10463405;28;1941;-74
2022/07/12 11:43:09;;;;;;;;;;;26.10;99.90;;;23.35;41.51;96350.09;10510682;28;1874;-73
2022/07/12 11:48:12;;;;;;;;;;;25.10;99.90;;;23.17;41.71;96352.28;10485827;28;1798;-74
2022/07/12 11:53:15;;;;;;;;;;;24.40;99.90;;;23.96;39.51;96350.13;10472072;28;1864;-75
2022/07/12 11:58:19;;;;;;;;;;;24.50;99.90;;;24.51;37.37;96343.16;10489331;28;1909;-74
2022/07/12 12:03:22;;;;;;;;;;;25.10;99.90;;;24.74;38.19;96344.16;10468280;28;1847;-76
2022/07/12 12:08:26;;;;;;;;;;;25.40;99.90;;;23.67;39.74;96342.97;10472451;28;1801;-75
2022/07/12 12:13:29;;;;;;;;;;;25.10;99.90;;;23.95;39.05;96340.28;10460900;28;1855;-73
2022/07/12 12:18:32;;;;;;;;;;;24.90;99.90;;;24.83;38.62;96324.00;10466479;28;1894;-74
2022/07/12 12:23:35;;;;;;;;;;;25.20;99.90;;;25.14;36.67;96329.56;10473442;28;2028;-74
2022/07/12 12:28:39;;;;;;;;;;;25.90;99.90;;;25.80;35.63;96339.03;10469315;28;1845;-74
2022/07/12 12:33:43;;;;;;;;;;;26.20;99.90;;;25.40;35.92;96336.47;10467928;28;1820;-76
2022/07/12 12:38:47;;;;;;;;;;;26.30;99.90;;;24.74;37.08;96341.41;10467962;28;1980;-75
2022/07/12 12:43:50;;;;;;;;;;;26.00;99.90;;;24.74;36.95;96322.19;10468655;28;1805;-74
2022/07/12 12:48:57;;;;;;;;;;;25.80;99.90;;;25.03;36.44;96331.19;10467382;28;1880;-76
2022/07/12 12:53:59;;;;;;;;;;;25.80;99.90;;;25.08;37.02;96322.72;10462954;28;1872;-74
2022/07/12 12:59:02;;;;;;;;;;;26.00;99.90;;;25.30;37.19;96318.53;10465362;28;1973;-74
2022/07/12 13:04:05;;;;;;;;;;;26.30;99.90;;;25.48;36.08;96318.97;10464165;28;1973;-73
2022/07/12 13:09:08;;;;;;;;;;;26.60;98.80;;;25.64;34.57;96317.03;10472930;28;1761;-74
2022/07/12 13:14:11;;;;;;;;;;;26.60;97.00;;;24.98;35.64;96325.94;10467291;28;1855;-74
2022/07/12 13:19:14;;;;;;;;;;;26.60;96.50;;;25.09;36.15;96316.06;10470254;28;1971;-74
2022/07/12 13:24:17;;;;;;;;;;;26.00;98.10;;;24.49;36.69;96326.19;10467270;28;1807;-75
2022/07/12 13:29:20;;;;;;;;;;;25.80;96.30;;;24.18;37.57;96324.91;10469815;28;1954;-74
2022/07/12 13:34:23;;;;;;;;;;;25.30;97.80;;;24.26;37.26;96323.97;10467869;28;1803;-76
2022/07/12 13:44:52;;;;;;;;;;;25.50;97.30;;;24.90;35.66;96332.41;10462267;28;2054;-74
2022/07/12 13:49:55;;;;;;;;;;;25.70;96.20;;;24.96;35.78;96333.75;10472718;28;1874;-75
2022/07/12 13:55:00;;;;;;;;;;;25.90;96.00;;;24.92;36.44;96335.59;10470268;28;1804;-74
2022/07/12 14:00:03;;;;;;;;;;;25.90;96.20;;;24.37;36.65;96332.56;10468336;28;1906;-73
2022/07/12 14:05:07;;;;;;;;;;;25.50;96.00;;;24.47;35.88;96331.25;10465613;28;1950;-73
2022/07/12 14:10:10;;;;;;;;;;;25.30;95.40;;;24.32;35.50;96329.22;10469991;28;1863;-74
2022/07/12 14:15:35;;;;;;;;;;;25.30;94.20;;;24.49;36.10;96337.19;10464534;28;1848;-74
2022/07/12 14:20:38;;;;;;;;;;;25.30;95.20;;;23.89;35.66;96330.69;10467315;28;1913;-74
2022/07/12 14:25:41;;;;;;;;;;;25.10;93.60;;;23.65;36.58;96332.31;10463452;28;1856;-73
2022/07/12 14:30:43;;;;;;;;;;;24.70;95.10;;;24.49;36.06;96331.69;10464578;28;1864;-75
2022/07/12 14:35:47;;;;;;;;;;;25.10;95.50;;;25.11;34.90;96329.44;10476272;28;1875;-74
2022/07/12 14:40:50;;;;;;;;;;;25.70;93.90;;;25.37;33.73;96326.19;10467483;28;1983;-74
2022/07/12 14:45:53;;;;;;;;;;;26.30;92.70;;;26.34;32.80;96325.28;10468840;28;2023;-74
2022/07/12 14:50:56;;;;;;;;;;;26.80;91.90;;;26.60;31.64;96321.91;10473133;28;1737;-73
2022/07/12 14:56:00;;;;;;;;;;;27.30;91.00;;;26.04;32.15;96318.72;10468328;28;2026;-75
2022/07/12 15:01:03;;;;;;;;;;;27.30;89.60;;;26.02;32.59;96313.59;10470315;28;1975;-75
2022/07/12 15:06:06;;;;;;;;;;;27.10;89.80;;;25.49;32.91;96312.31;10469190;28;2038;-75
2022/07/12 15:11:09;;;;;;;;;;;26.70;88.70;;;25.93;32.30;96303.91;10469363;28;1807;-75
2022/07/12 15:16:12;;;;;;;;;;;26.80;88.90;;;26.06;32.15;96308.94;10468932;28;1840;-75
2022/07/12 15:21:15;;;;;;;;;;;26.90;88.60;;;25.84;32.69;96313.19;10489571;28;1909;-74
2022/07/12 15:26:18;;;;;;;;;;;27.10;88.30;;;25.98;32.54;96309.94;10472434;28;1805;-73
2022/07/12 15:31:21;;;;;;;;;;;26.90;88.30;;;25.98;32.34;96306.41;10470902;28;1480;-74
2022/07/12 15:36:24;;;;;;;;;;;27.10;87.80;;;26.01;32.18;96294.66;10467953;28;1443;-74
2022/07/12 15:41:27;;;;;;;;;;;26.90;87.20;;;26.09;32.57;96293.66;10468699;28;1985;-73
2022/07/12 15:46:30;;;;;;;;;;;27.00;88.30;;;26.06;32.45;96295.16;10487254;28;1832;-73
2022/07/12 15:56:53;;;;;;;;;;;27.10;87.40;;;26.30;31.39;96302.38;10467156;28;1839;-73
2022/07/12 16:02:05;;;;;;;;;;;27.10;86.50;;;26.00;31.59;96284.78;10473866;28;1910;-73
2022/07/12 16:07:09;;;;;;;;;;;27.00;86.20;;;26.01;31.65;96286.38;10468155;28;1898;-74
2022/07/12 16:12:12;;;;;;;;;;;26.90;85.70;;;25.75;32.53;96290.53;10465673;28;1753;-74
2022/07/12 16:17:15;;;;;;;;;;;26.80;86.00;;;24.70;34.52;96299.31;10470459;28;1829;-74
2022/07/12 16:22:19;;;;;;;;;;;26.30;86.90;;;24.39;34.45;96305.53;10484877;28;1991;-73
2022/07/12 16:27:21;;;;;;;;;;;25.70;87.10;;;24.53;35.08;96299.63;10467773;28;1780;-74
2022/07/12 16:32:24;;;;;;;;;;;25.50;88.40;;;24.22;34.73;96306.56;10469621;28;1781;-74
2022/07/12 16:37:27;;;;;;;;;;;25.40;87.70;;;24.07;35.05;96299.06;10471113;28;1910;-73
2022/07/12 16:42:31;;;;;;;;;;;25.20;88.40;;;24.06;34.94;96311.22;10484451;28;1913;-73
2022/07/12 16:47:34;;;;;;;;;;;25.00;88.10;;;23.65;35.61;96301.31;10471229;28;1886;-73
2022/07/12 16:52:38;;;;;;;;;;;24.80;88.30;;;23.87;34.99;96297.31;10472645;28;1876;-74
2022/07/12 16:57:42;;;;;;;;;;;24.80;88.40;;;23.77;35.71;96301.31;10473932;28;1852;-73
2022/07/12 17:02:45;;;;;;;;;;;24.70;89.00;;;23.81;35.65;96293.19;10469512;28;1949;-74
2022/07/12 17:07:48;;;;;;;;;;;24.70;89.00;;;23.69;35.76;96299.50;10472037;28;1761;-73
2022/07/12 17:12:52;;;;;;;;;;;24.70;88.90;;;23.52;35.79;96295.00;10478568;28;1824;-74
2022/07/12 17:17:57;;;;;;;;;;;24.50;88.70;;;23.50;35.96;96302.81;10478017;28;1831;-73
2022/07/12 17:23:00;;;;;;;;;;;24.40;89.00;;;23.46;36.28;96296.38;10472469;28;1910;-74
2022/07/12 17:28:03;;;;;;;;;;;24.40;89.10;;;23.30;36.76;96307.25;10476675;28;1922;-72
2022/07/12 17:33:06;;;;;;;;;;;24.30;89.50;;;23.32;37.08;96304.97;10474259;28;1852;-74
2022/07/12 17:38:10;;;;;;;;;;;24.20;90.00;;;23.24;37.27;96305.09;10476085;28;2302;-72
2022/07/12 17:43:13;;;;;;;;;;;24.20;90.30;;;23.27;36.71;96304.38;10477419;28;2232;-74
2022/07/12 17:48:16;;;;;;;;;;;24.10;89.80;;;23.07;37.08;96306.09;10480514;28;1538;-73
2022/07/12 17:53:21;;;;;;;;;;;24.10;90.00;;;23.01;37.22;96312.94;10488103;28;1841;-74
2022/07/12 17:58:41;;;;;;;;;;;23.90;90.10;;;22.99;37.68;96310.53;10468268;28;1970;-73
2022/07/12 18:03:44;;;;;;;;;;;23.90;90.60;;;22.91;37.97;96314.19;10474333;28;1907;-73
2022/07/12 18:08:52;;;;;;;;;;;23.90;90.90;;;22.78;38.48;96320.75;10464807;28;1871;-73
2022/07/12 18:19:18;;;;;;;;;;;23.70;91.70;;;22.66;38.89;96324.25;10482403;28;1944;-74
2022/07/12 18:24:23;;;;;;;;;;;23.60;91.90;;;22.59;39.06;96321.28;10471545;28;1887;-73
2022/07/12 18:29:26;;;;;;;;;;;23.50;92.20;;;22.50;39.51;96326.81;10472646;28;1952;-74
2022/07/12 18:34:29;;;;;;;;;;;23.50;92.50;;;22.21;40.43;96326.94;10471221;28;1884;-74
2022/07/12 18:39:32;;;;;;;;;;;23.30;93.00;;;21.99;40.70;96328.03;10476109;28;2022;-74
2022/07/12 18:44:36;;;;;;;;;;;23.10;93.10;;;21.92;41.00;96320.34;10458920;28;1872;-73
2022/07/12 18:49:40;;;;;;;;;;;23.00;93.50;;;21.64;41.72;96322.78;10471961;28;2023;-74
2022/07/12 18:54:43;;;;;;;;;;;22.80;94.10;;;21.41;42.45;96330.47;10467356;28;2099;-75
2022/07/12 18:59:46;;;;;;;;;;;22.60;94.60;;;21.32;42.84;96327.00;10469462;28;1910;-73
2022/07/12 19:04:50;;;;;;;;;;;22.50;95.10;;;21.32;42.92;96321.53;10468250;28;2079;-74
2022/07/12 19:09:53;;;;;;;;;;;22.40;95.70;;;21.17;43.54;96320.09;10470085;28;1825;-74
2022/07/12 19:14:56;;;;;;;;;;;22.30;96.10;;;20.85;45.34;96328.88;10470258;28;1908;-74
2022/07/12 19:19:59;;;;;;;;;;;22.20;97.20;;;20.57;45.77;96333.94;10468709;28;2010;-74
2022/07/12 19:25:04;;;;;;;;;;;21.90;97.90;;;20.30;46.98;96335.06;10463498;28;1887;-74
2022/07/12 19:30:07;;;;;;;;;;;21.60;98.70;;;20.27;46.91;96341.97;10466363;28;1796;-74
2022/07/12 19:35:10;;;;;;;;;;;21.40;99.30;;;20.15;47.31;96345.31;10460729;28;2176;-73
2022/07/12 19:40:14;;;;;;;;;;;21.40;99.30;;;20.08;47.51;96352.41;10475853;28;1977;-73
2022/07/12 19:45:18;;;;;;;;;;;21.30;99.70;;;20.04;47.79;96356.88;10467593;28;1955;-73
2022/07/12 19:50:27;;;;;;;;;;;21.30;99.90;;;19.95;48.12;96360.41;10473750;28;1851;-73
2022/07/12 19:55:30;;;;;;;;;;;21.20;99.90;;;19.81;48.98;96354.28;10490263;28;1825;-74
2022/07/12 20:00:34;;;;;;;;;;;21.10;99.90;;;19.64;49.78;96363.22;10467396;28;1922;-72
2022/07/12 20:05:38;;;;;;;;;;;20.90;99.90;;;19.41;51.81;96362.50;10470958;28;1785;-74
2022/07/12 20:10:41;;;;;;;;;;;20.70;99.90;;;19.22;52.11;96363.88;10468438;28;1768;-74
2022/07/12 20:15:45;;;;;;;;;;;20.60;99.90;;;19.09;53.06;96371.03;10469023;28;1764;-73
2022/07/12 20:20:50;;;;;;;;;;;20.40;99.90;;;19.09;54.01;96362.88;10464520;28;1977;-73
2022/07/12 20:25:54;;;;;;;;;;;20.30;99.90;;;19.08;52.62;96369.41;10468722;28;1898;-73
2022/07/12 20:30:58;;;;;;;;;;;20.20;99.90;;;18.97;53.55;96384.44;10481242;28;1769;-73
2022/07/12 20:36:02;;;;;;;;;;;20.20;99.90;;;18.89;54.09;96375.91;10469881;28;1787;-73
2022/07/12 20:41:05;;;;;;;;;;;20.10;99.90;;;18.95;54.00;96365.66;10470305;28;1977;-74
2022/07/12 20:46:13;;;;;;;;;;;20.10;99.90;;;18.83;54.88;96365.44;10471487;28;1861;-73
2022/07/12 20:51:16;;;;;;;;;;;20.00;99.90;;;18.70;56.06;96369.84;10475059;28;1922;-73
2022/07/12 20:56:19;;;;;;;;;;;19.90;99.90;;;18.65;56.65;96383.56;10466733;28;1796;-74
2022/07/12 21:01:21;;;;;;;;;;;19.80;99.90;;;18.67;56.62;96378.63;10473050;28;1909;-73
2022/07/12 21:06:25;;;;;;;;;;;19.80;99.90;;;18.54;58.94;96379.47;10464808;28;1888;-74
2022/07/12 21:11:28;;;;;;;;;;;19.80;99.90;;;18.48;58.89;96378.00;10490660;28;2012;-72
2022/07/12 21:16:31;;;;;;;;;;;19.70;99.90;;;18.40;60.40;96373.31;10469749;28;1863;-72
2022/07/12 21:21:34;;;;;;;;;;;19.50;99.90;;;18.44;59.38;96379.72;10471224;28;1948;-73
2022/07/12 21:26:38;;;;;;;;;;;19.50;99.90;;;18.31;60.34;96381.38;10470419;28;1871;-74
2022/07/12 21:31:42;;;;;;;;;;;19.50;99.90;;;18.18;62.82;96372.16;10475818;28;1796;-73
2022/07/12 21:36:45;;;;;;;;;;;19.40;99.90;;;18.03;63.13;96376.03;10474598;28;2455;-74
2022/07/12 21:41:48;;;;;;;;;;;18.50;99.90;;;17.91;64.69;96377.66;10465354;28;1917;-73
2022/07/12 21:46:51;;;;;;;;;;;19.10;99.90;;;17.85;63.46;96374.25;10493109;28;1641;-73
2022/07/12 21:51:54;;;;;;;;;;;19.00;99.90;;;17.85;64.70;96395.22;10473972;28;1899;-73
2022/07/12 21:56:57;;;;;;;;;;;19.00;99.90;;;17.68;66.75;96385.72;10472590;28;1851;-72
2022/07/12 22:01:59;;;;;;;;;;;19.00;99.90;;;17.47;68.54;96389.97;10487498;28;1914;-73
2022/07/12 22:07:03;;;;;;;;;;;18.80;99.90;;;17.31;69.27;96400.34;10469540;28;1887;-73
2022/07/12 22:12:05;;;;;;;;;;;18.60;99.90;;;17.21;70.08;96393.19;10469726;28;1844;-74
2022/07/12 22:17:08;;;;;;;;;;;18.50;99.90;;;17.16;70.50;96392.47;10481405;28;1897;-73
2022/07/12 22:22:11;;;;;;;;;;;18.40;99.90;;;17.14;69.79;96397.41;10472663;28;2092;-74
2022/07/12 22:27:14;;;;;;;;;;;18.30;99.90;;;17.14;70.11;96398.22;10471385;28;1843;-73
2022/07/12 22:32:18;;;;;;;;;;;18.30;99.90;;;17.06;71.75;96406.25;10472851;28;1887;-73
2022/07/12 22:37:22;;;;;;;;;;;18.30;99.90;;;16.90;72.83;96403.81;10473338;28;1816;-73
2022/07/12 22:42:26;;;;;;;;;;;18.20;99.90;;;16.68;74.04;96409.84;10472344;28;1977;-73
2022/07/12 22:47:29;;;;;;;;;;;18.00;99.90;;;16.59;75.62;96414.31;10470404;28;1840;-73
2022/07/12 22:52:32;;;;;;;;;;;17.80;99.90;;;16.48;75.51;96404.75;10468572;28;1863;-72
2022/07/12 22:57:35;;;;;;;;;;;17.70;99.90;;;16.44;76.25;96406.44;10466491;28;1844;-72
2022/07/12 23:02:38;;;;;;;;;;;17.70;99.90;;;16.33;77.03;96400.34;10465374;28;1906;-73
2022/07/12 23:07:42;;;;;;;;;;;17.50;99.90;;;16.32;76.76;96409.59;10474766;28;1789;-72
2022/07/12 23:12:45;;;;;;;;;;;17.50;99.90;;;16.24;77.53;96407.56;10469073;28;1836;-73
2022/07/12 23:17:48;;;;;;;;;;;17.40;99.90;;;16.15;78.79;96409.31;10472314;28;1922;-72
2022/07/12 23:22:52;;;;;;;;;;;17.40;99.90;;;16.11;78.41;96406.41;10469806;28;1933;-73
2022/07/12 23:27:56;;;;;;;;;;;17.30;99.90;;;16.10;78.98;96407.50;10488647;28;1731;-73
2022/07/12 23:32:58;;;;;;;;;;;17.30;99.90;;;16.07;79.76;96408.06;10463442;28;1931;-72
2022/07/12 23:38:01;;;;;;;;;;;17.20;99.90;;;16.03;82.37;96411.66;10471824;28;1864;-72